createdAt,value
2023-03-08T00:01:59.479Z,99450.80
2023-03-08T00:04:28.246Z,99451.12
2023-03-08T00:06:57.056Z,99447.27
2023-03-08T00:09:25.648Z,99440.23
2023-03-08T00:11:53.958Z,99436.34
2023-03-08T00:14:22.689Z,99435.41
2023-03-08T00:16:50.889Z,99429.41
2023-03-08T00:19:19.372Z,99428.56
2023-03-08T00:21:47.853Z,99422.85
2023-03-08T00:24:18.182Z,99414.59
2023-03-08T00:26:47.691Z,99411.06
2023-03-08T00:29:16.105Z,99413.86
2023-03-08T00:31:44.519Z,99413.67
2023-03-08T00:34:13.671Z,99411.92
2023-03-08T00:36:45.419Z,99412.93
2023-03-08T00:39:16.604Z,99422.53
2023-03-08T00:41:44.948Z,99409.30
2023-03-08T00:44:13.530Z,99403.83
2023-03-08T00:46:41.927Z,99399.62
2023-03-08T00:49:11.310Z,99400.98
2023-03-08T00:51:39.968Z,99395.00
2023-03-08T00:54:09.212Z,99386.42
2023-03-08T00:56:37.691Z,99384.90
2023-03-08T00:59:06.105Z,99383.80
2023-03-08T01:01:34.767Z,99367.04
2023-03-08T01:04:04.527Z,99372.15
2023-03-08T01:06:33.679Z,99383.51
2023-03-08T01:09:02.568Z,99380.38
2023-03-08T01:11:33.433Z,99375.13
2023-03-08T01:14:02.195Z,99365.69
2023-03-08T01:16:32.729Z,99365.98
2023-03-08T01:19:01.532Z,99363.94
2023-03-08T01:21:30.497Z,99355.69
2023-03-08T01:23:58.918Z,99346.44
2023-03-08T01:26:31.897Z,99346.73
2023-03-08T01:29:00.568Z,99346.23
2023-03-08T01:31:32.335Z,99346.49
2023-03-08T01:34:03.164Z,99336.80
2023-03-08T01:36:31.677Z,99332.13
2023-03-08T01:39:01.476Z,99336.27
2023-03-08T01:41:31.012Z,99338.20
2023-03-08T01:44:03.959Z,99341.77
2023-03-08T01:46:36.337Z,99336.50
2023-03-08T01:49:12.086Z,99340.58
2023-03-08T01:51:52.347Z,99336.52
2023-03-08T01:54:25.336Z,99339.59
2023-03-08T01:56:55.256Z,99336.55
2023-03-08T01:59:23.639Z,99329.34
2023-03-08T02:01:52.196Z,99325.36
2023-03-08T02:04:20.827Z,99328.73
2023-03-08T02:06:52.890Z,99326.15
2023-03-08T02:09:24.240Z,99324.43
2023-03-08T02:11:55.481Z,99319.58
2023-03-08T02:14:29.509Z,99317.20
2023-03-08T02:16:58.074Z,99313.34
2023-03-08T02:19:41.712Z,99310.25
2023-03-08T02:22:12.720Z,99318.07
2023-03-08T02:24:41.037Z,99321.04
2023-03-08T02:27:14.130Z,99309.79
2023-03-08T02:29:42.723Z,99307.61
2023-03-08T02:32:12.181Z,99309.04
2023-03-08T02:34:40.926Z,99313.48
2023-03-08T02:37:09.849Z,99314.10
2023-03-08T02:39:38.212Z,99307.85
2023-03-08T02:42:06.986Z,99306.70
2023-03-08T02:44:36.723Z,99301.72
2023-03-08T02:47:05.509Z,99297.11
2023-03-08T02:49:34.098Z,99293.69
2023-03-08T02:52:04.852Z,99297.95
2023-03-08T02:54:34.412Z,99296.25
2023-03-08T02:57:02.687Z,99297.69
2023-03-08T02:59:31.591Z,99298.43
2023-03-08T03:02:00.993Z,99302.49
2023-03-08T03:04:33.400Z,99306.40
2023-03-08T03:07:01.849Z,99308.03
2023-03-08T03:09:34.559Z,99307.66
2023-03-08T03:12:04.166Z,99308.21
2023-03-08T03:14:37.638Z,99310.86
2023-03-08T03:17:06.051Z,99309.48
2023-03-08T03:19:34.910Z,99311.84
2023-03-08T03:22:07.833Z,99311.13
2023-03-08T03:24:37.732Z,99308.56
2023-03-08T03:27:07.424Z,99308.59
2023-03-08T03:29:38.706Z,99305.34
2023-03-08T03:32:12.340Z,99308.21
2023-03-08T03:34:44.779Z,99306.45
2023-03-08T03:37:13.642Z,99306.34
2023-03-08T03:39:42.739Z,99301.90
2023-03-08T03:42:12.875Z,99294.01
2023-03-08T03:44:46.359Z,99292.66
2023-03-08T03:47:18.334Z,99289.48
2023-03-08T03:49:47.530Z,99283.66
2023-03-08T03:52:17.562Z,99281.10
2023-03-08T03:54:53.140Z,99280.89
2023-03-08T03:57:21.916Z,99278.88
2023-03-08T03:59:50.481Z,99272.77
2023-03-08T04:02:19.171Z,99267.52
2023-03-08T04:04:55.239Z,99260.53
2023-03-08T04:07:26.078Z,99253.95
2023-03-08T04:10:00.120Z,99253.85
2023-03-08T04:12:29.287Z,99251.68
2023-03-08T04:14:57.881Z,99248.63
2023-03-08T04:17:29.945Z,99251.59
2023-03-08T04:19:59.860Z,99243.61
2023-03-08T04:22:34.993Z,99239.59
2023-03-08T04:25:09.478Z,99240.09
2023-03-08T04:27:44.659Z,99232.36
2023-03-08T04:30:15.003Z,99226.34
2023-03-08T04:32:44.236Z,99234.59
2023-03-08T04:35:13.282Z,99232.20
2023-03-08T04:37:44.227Z,99226.07
2023-03-08T04:40:13.535Z,99227.34
2023-03-08T04:43:02.798Z,99231.19
2023-03-08T04:45:35.789Z,99233.07
2023-03-08T04:48:07.237Z,99231.85
2023-03-08T04:50:39.729Z,99234.45
2023-03-08T04:53:13.658Z,99238.67
2023-03-08T04:55:43.067Z,99238.04
2023-03-08T04:58:11.720Z,99239.80
2023-03-08T05:00:40.350Z,99239.30
2023-03-08T05:03:10.531Z,99235.88
2023-03-08T05:05:39.426Z,99231.33
2023-03-08T05:08:08.417Z,99230.69
2023-03-08T05:10:38.781Z,99231.38
2023-03-08T05:13:09.818Z,99230.85
2023-03-08T05:15:42.095Z,99233.28
2023-03-08T05:19:08.097Z,99232.23
2023-03-08T05:22:58.691Z,99218.48
2023-03-08T05:26:43.068Z,99215.01
2023-03-08T05:30:27.449Z,99217.35
2023-03-08T05:34:14.154Z,99213.55
2023-03-08T05:37:58.108Z,99201.91
2023-03-08T05:41:43.391Z,99188.20
2023-03-08T05:45:28.372Z,99196.30
2023-03-08T05:49:12.733Z,99205.98
2023-03-08T05:52:56.305Z,99213.39
2023-03-08T05:56:43.820Z,99207.46
2023-03-08T06:00:27.459Z,99205.02
2023-03-08T06:04:12.331Z,99206.11
2023-03-08T06:07:58.143Z,99197.05
2023-03-08T06:11:43.617Z,99191.50
2023-03-08T06:15:28.001Z,99190.64
2023-03-08T06:18:18.281Z,99188.95
2023-03-08T06:21:23.235Z,99188.52
2023-03-08T06:24:04.672Z,99177.98
2023-03-08T06:26:40.885Z,99174.70
2023-03-08T06:29:15.228Z,99169.20
2023-03-08T06:32:10.663Z,99161.27
2023-03-08T06:34:48.108Z,99158.63
2023-03-08T06:37:41.026Z,99156.52
2023-03-08T06:40:21.016Z,99152.28
2023-03-08T06:43:12.331Z,99154.27
2023-03-08T06:45:56.584Z,99157.99
2023-03-08T06:48:53.126Z,99161.23
2023-03-08T06:51:51.881Z,99167.69
2023-03-08T06:54:39.779Z,99166.08
2023-03-08T06:57:11.451Z,99175.95
2023-03-08T07:00:00.509Z,99170.02
2023-03-08T07:02:44.139Z,99168.46
2023-03-08T07:05:31.244Z,99166.88
2023-03-08T07:08:29.314Z,99165.46
2023-03-08T07:11:31.393Z,99164.45
2023-03-08T07:14:08.372Z,99163.98
2023-03-08T07:16:51.230Z,99159.05
2023-03-08T07:19:37.242Z,99163.85
2023-03-08T07:22:29.426Z,99161.28
2023-03-08T07:25:24.685Z,99154.24
2023-03-08T07:28:24.656Z,99154.52
2023-03-08T07:31:19.359Z,99157.38
2023-03-08T07:34:11.813Z,99163.64
2023-03-08T07:36:56.162Z,99158.56
2023-03-08T07:39:52.502Z,99157.18
2023-03-08T07:42:44.431Z,99147.89
2023-03-08T08:02:29.564Z,99149.16
2023-03-08T08:05:33.533Z,99150.14
2023-03-08T08:08:19.301Z,99146.38
2023-03-08T08:26:36.105Z,99121.59
2023-03-08T08:29:22.496Z,99124.35
2023-03-08T08:32:17.494Z,99120.59
2023-03-08T08:35:09.190Z,99120.84
2023-03-08T08:37:57.484Z,99120.92
2023-03-08T08:40:47.870Z,99121.20
2023-03-08T08:43:37.034Z,99120.90
2023-03-08T08:46:38.583Z,99119.98
2023-03-08T08:49:31.446Z,99121.08
2023-03-08T08:52:19.294Z,99121.21
2023-03-08T08:55:13.973Z,99123.10
2023-03-08T08:58:02.339Z,99119.44
2023-03-08T09:00:54.272Z,99116.80
2023-03-08T09:04:13.641Z,99121.87
2023-03-08T09:07:10.163Z,99118.39
2023-03-08T09:10:12.590Z,99119.68
2023-03-08T09:13:03.814Z,99116.14
2023-03-08T09:15:51.659Z,99111.93
2023-03-08T09:18:36.170Z,99112.36
2023-03-08T09:21:08.708Z,99108.15
2023-03-08T09:23:59.453Z,99108.27
2023-03-08T09:27:02.046Z,99095.35
2023-03-08T09:33:33.319Z,99095.88
2023-03-08T09:36:26.588Z,99092.52
2023-03-08T09:39:15.430Z,99098.34
2023-03-08T09:42:09.019Z,99096.45
2023-03-08T09:45:08.621Z,99095.36
2023-03-08T09:48:26.774Z,99092.15
2023-03-08T09:51:16.889Z,99084.30
2023-03-08T09:57:28.938Z,99079.73
2023-03-08T10:00:32.802Z,99076.27
2023-03-08T10:03:44.626Z,99074.70
2023-03-08T10:07:22.240Z,99071.34
2023-03-08T10:10:08.881Z,99068.81
2023-03-08T10:13:20.999Z,99070.86
2023-03-08T10:16:34.514Z,99077.51
2023-03-08T10:19:29.638Z,99090.84
2023-03-08T10:22:35.041Z,99100.23
2023-03-08T10:25:37.098Z,99117.11
2023-03-08T10:28:36.636Z,99116.73
2023-03-08T10:31:35.431Z,99097.01
2023-03-08T10:34:33.892Z,99092.09
2023-03-08T10:37:21.429Z,99085.92
2023-03-08T10:40:09.882Z,99081.23
2023-03-08T10:43:08.476Z,99085.44
2023-03-08T10:46:14.732Z,99090.09
2023-03-08T10:49:33.092Z,99093.10
2023-03-08T10:52:02.708Z,99095.19
2023-03-08T10:54:31.289Z,99095.79
2023-03-08T10:57:02.022Z,99096.75
2023-03-08T10:59:33.576Z,99084.60
2023-03-08T11:02:23.170Z,99092.14
2023-03-08T11:04:56.080Z,99086.70
2023-03-08T11:07:27.396Z,99086.04
2023-03-08T11:10:26.456Z,99085.52
2023-03-08T11:13:06.144Z,99076.73
2023-03-08T11:15:39.033Z,99065.95
2023-03-08T11:18:32.623Z,99067.98
2023-03-08T11:21:06.825Z,99066.39
2023-03-08T11:24:10.827Z,99066.58
2023-03-08T11:26:51.938Z,99070.48
2023-03-08T11:29:39.862Z,99052.75
2023-03-08T11:32:17.469Z,99048.64
2023-03-08T11:34:57.813Z,99057.36
2023-03-08T11:38:16.884Z,99053.23
2023-03-08T11:41:33.518Z,99050.98
2023-03-08T11:44:44.803Z,99050.87
2023-03-08T11:47:53.617Z,99054.86
2023-03-08T11:50:36.341Z,99055.30
2023-03-08T11:53:09.941Z,99050.80
2023-03-08T11:55:40.689Z,99048.23
2023-03-08T11:58:27.379Z,99039.16
2023-03-08T12:01:00.894Z,99038.49
2023-03-08T12:03:41.617Z,99040.16
2023-03-08T12:06:28.010Z,99040.49
2023-03-08T12:09:05.846Z,99035.71
2023-03-08T12:11:47.682Z,99037.28
2023-03-08T12:14:23.442Z,99028.42
2023-03-08T12:17:01.944Z,99026.21
2023-03-08T12:19:43.974Z,99035.38
2023-03-08T12:22:23.597Z,99042.40
2023-03-08T12:25:25.546Z,99043.84
2023-03-08T12:27:57.060Z,99035.95
2023-03-08T12:30:37.563Z,99032.98
2023-03-08T12:33:06.837Z,99034.92
2023-03-08T12:35:36.420Z,99033.15
2023-03-08T12:38:10.301Z,99040.09
2023-03-08T12:40:44.560Z,99038.16
2023-03-08T12:43:20.572Z,99043.58
2023-03-08T12:46:05.842Z,99055.66
2023-03-08T12:48:44.717Z,99053.44
2023-03-08T12:51:13.064Z,99056.08
2023-03-08T12:53:51.774Z,99062.00
2023-03-08T12:56:27.982Z,99052.63
2023-03-08T12:58:59.495Z,99055.22
2023-03-08T13:01:30.964Z,99045.96
2023-03-08T13:04:00.528Z,99045.94
2023-03-08T13:06:37.404Z,99041.71
2023-03-08T13:09:13.711Z,99048.45
2023-03-08T13:11:46.198Z,99046.19
2023-03-08T13:14:28.915Z,99041.72
2023-03-08T13:16:57.594Z,99035.58
2023-03-08T13:19:27.802Z,99042.40
2023-03-08T13:22:03.159Z,99044.46
2023-03-08T13:25:01.660Z,99041.71
2023-03-08T13:27:49.820Z,99047.66
2023-03-08T13:30:24.349Z,99042.66
2023-03-08T13:32:54.132Z,99045.25
2023-03-08T13:35:22.953Z,99046.25
2023-03-08T13:37:57.159Z,99052.09
2023-03-08T13:40:26.286Z,99055.05
2023-03-08T13:43:04.044Z,99058.47
2023-03-08T13:45:33.445Z,99060.06
2023-03-08T13:48:04.212Z,99051.96
2023-03-08T13:50:38.703Z,99055.46
2023-03-08T13:53:36.939Z,99052.52
2023-03-08T13:56:06.888Z,99053.80
2023-03-08T13:58:39.832Z,99055.81
2023-03-08T14:01:17.626Z,99055.67
2023-03-08T14:03:46.868Z,99049.98
2023-03-08T14:06:30.090Z,99046.91
2023-03-08T14:09:01.688Z,99045.59
2023-03-08T14:11:32.426Z,99043.69
2023-03-08T14:14:07.649Z,99047.27
2023-03-08T14:16:37.999Z,99051.67
2023-03-08T14:19:19.833Z,99051.67
2023-03-08T14:21:59.986Z,99051.45
2023-03-08T14:24:30.367Z,99054.25
2023-03-08T14:27:06.917Z,99052.59
2023-03-08T14:29:36.513Z,99053.64
2023-03-08T14:32:24.102Z,99046.94
2023-03-08T14:34:52.876Z,99047.89
2023-03-08T14:37:27.415Z,99053.55
2023-03-08T14:40:11.798Z,99051.73
2023-03-08T14:42:45.606Z,99057.45
2023-03-08T14:45:37.611Z,99055.42
2023-03-08T14:48:25.336Z,99060.39
2023-03-08T14:51:06.198Z,99061.20
2023-03-08T14:53:40.954Z,99064.23
2023-03-08T14:56:15.950Z,99064.69
2023-03-08T14:58:49.496Z,99071.58
2023-03-08T15:01:25.978Z,99069.27
2023-03-08T15:03:54.470Z,99070.41
2023-03-08T15:06:27.924Z,99066.64
2023-03-08T15:08:56.815Z,99069.86
2023-03-08T15:11:25.298Z,99069.80
2023-03-08T15:13:54.009Z,99072.65
2023-03-08T15:16:22.640Z,99082.20
2023-03-08T15:18:51.386Z,99084.71
2023-03-08T15:21:25.205Z,99088.98
2023-03-08T15:23:59.588Z,99095.25
2023-03-08T15:26:31.863Z,99094.10
2023-03-08T15:29:10.557Z,99102.55
2023-03-08T15:31:52.021Z,99106.60
2023-03-08T15:34:30.331Z,99102.84
2023-03-08T15:37:01.543Z,99107.52
2023-03-08T15:39:50.065Z,99114.08
2023-03-08T15:43:05.883Z,99117.80
2023-03-08T15:45:34.270Z,99119.27
2023-03-08T15:48:07.420Z,99123.89
2023-03-08T15:50:36.797Z,99127.39
2023-03-08T15:53:05.450Z,99128.73
2023-03-08T15:55:34.237Z,99126.87
2023-03-08T15:58:07.842Z,99127.50
2023-03-08T16:00:37.045Z,99141.77
2023-03-08T16:03:05.524Z,99140.21
2023-03-08T16:05:34.622Z,99149.17
2023-03-08T16:08:03.420Z,99153.05
2023-03-08T16:10:40.745Z,99152.52
2023-03-08T16:13:12.161Z,99153.19
2023-03-08T16:15:44.025Z,99157.16
2023-03-08T16:18:14.563Z,99166.52
2023-03-08T16:20:46.440Z,99167.83
2023-03-08T16:23:15.519Z,99173.89
2023-03-08T16:25:46.574Z,99180.46
2023-03-08T16:28:16.797Z,99193.55
2023-03-08T16:30:56.159Z,99203.05
2023-03-08T16:33:28.363Z,99214.89
2023-03-08T16:35:57.833Z,99207.39
2023-03-08T16:38:26.390Z,99208.67
2023-03-08T16:41:06.189Z,99212.39
2023-03-08T16:43:49.787Z,99220.91
2023-03-08T16:46:22.706Z,99221.88
2023-03-08T16:48:54.629Z,99225.40
2023-03-08T16:51:25.570Z,99226.45
2023-03-08T16:53:54.629Z,99224.88
2023-03-08T16:56:25.227Z,99219.20
2023-03-08T16:58:55.169Z,99225.83
2023-03-08T17:01:24.545Z,99224.83
2023-03-08T17:03:53.338Z,99227.84
2023-03-08T17:06:22.769Z,99231.00
2023-03-08T17:08:52.258Z,99236.44
2023-03-08T17:11:28.356Z,99246.49
2023-03-08T17:14:09.050Z,99244.27
2023-03-08T17:16:43.753Z,99243.06
2023-03-08T17:19:13.594Z,99246.47
2023-03-08T17:21:42.079Z,99249.52
2023-03-08T17:24:12.954Z,99247.02
2023-03-08T17:26:43.653Z,99241.74
2023-03-08T17:29:12.036Z,99238.27
2023-03-08T17:31:41.156Z,99242.69
2023-03-08T17:34:10.028Z,99247.24
2023-03-08T17:36:39.223Z,99252.91
2023-03-08T17:39:07.510Z,99258.38
2023-03-08T17:41:38.822Z,99260.05
2023-03-08T17:44:07.309Z,99263.75
2023-03-08T17:46:36.093Z,99263.83
2023-03-08T17:49:04.718Z,99260.66
2023-03-08T17:51:33.404Z,99269.94
2023-03-08T17:54:03.439Z,99271.98
2023-03-08T17:56:35.799Z,99271.73
2023-03-08T17:59:04.598Z,99280.88
2023-03-08T18:01:34.202Z,99280.30
2023-03-08T18:04:02.814Z,99283.44
2023-03-08T18:06:36.813Z,99292.80
2023-03-08T18:09:10.409Z,99300.93
2023-03-08T18:11:38.689Z,99302.95
2023-03-08T18:14:13.693Z,99300.98
2023-03-08T18:16:42.831Z,99296.68
2023-03-08T18:19:15.911Z,99297.36
2023-03-08T18:21:45.601Z,99298.80
2023-03-08T18:24:14.264Z,99303.73
2023-03-08T18:26:43.206Z,99307.81
2023-03-08T18:29:12.817Z,99312.42
2023-03-08T18:31:41.605Z,99313.36
2023-03-08T18:34:10.183Z,99312.29
2023-03-08T18:36:38.569Z,99308.93
2023-03-08T18:39:08.244Z,99313.20
2023-03-08T18:41:36.868Z,99312.67
2023-03-08T18:44:11.819Z,99312.34
2023-03-08T18:46:40.642Z,99314.88
2023-03-08T18:49:12.041Z,99311.78
2023-03-08T18:51:41.814Z,99313.58
2023-03-08T18:54:20.941Z,99313.03
2023-03-08T18:56:50.288Z,99316.19
2023-03-08T18:59:18.666Z,99324.34
2023-03-08T19:01:47.093Z,99325.55
2023-03-08T19:04:16.048Z,99328.41
2023-03-08T19:06:44.647Z,99333.77
2023-03-08T19:09:14.760Z,99330.72
2023-03-08T19:11:43.790Z,99325.30
2023-03-08T19:14:12.453Z,99320.14
2023-03-08T19:16:42.244Z,99324.31
2023-03-08T19:19:13.304Z,99329.56
2023-03-08T19:21:43.851Z,99334.80
2023-03-08T19:24:13.810Z,99338.29
2023-03-08T19:26:43.462Z,99333.76
2023-03-08T19:29:17.577Z,99337.46
2023-03-08T19:31:53.218Z,99334.01
2023-03-08T19:34:44.956Z,99332.92
2023-03-08T19:37:13.980Z,99336.69
2023-03-08T19:39:44.590Z,99342.20
2023-03-08T19:42:16.023Z,99345.86
2023-03-08T19:44:48.635Z,99351.11
2023-03-08T19:47:17.878Z,99348.50
2023-03-08T19:49:47.029Z,99351.36
2023-03-08T19:52:15.814Z,99360.41
2023-03-08T19:54:47.198Z,99357.31
2023-03-08T19:57:15.783Z,99358.99
2023-03-08T19:59:45.464Z,99358.45
2023-03-08T20:02:15.102Z,99355.38
2023-03-08T20:04:45.709Z,99352.14
2023-03-08T20:07:15.931Z,99353.19
2023-03-08T20:09:44.615Z,99353.49
2023-03-08T20:12:15.618Z,99353.70
2023-03-08T20:14:45.679Z,99354.55
2023-03-08T20:17:14.474Z,99354.48
2023-03-08T20:19:43.575Z,99357.45
2023-03-08T20:22:15.317Z,99353.45
2023-03-08T20:24:52.748Z,99351.34
2023-03-08T20:27:22.848Z,99349.82
2023-03-08T20:30:07.033Z,99346.94
2023-03-08T20:32:40.044Z,99345.80
2023-03-08T20:35:25.632Z,99346.91
2023-03-08T20:37:57.248Z,99349.34
2023-03-08T20:40:54.660Z,99347.07
2023-03-08T20:43:29.927Z,99346.29
2023-03-08T20:46:16.088Z,99347.17
2023-03-08T20:49:02.883Z,99348.76
2023-03-08T20:51:52.947Z,99352.23
2023-03-08T20:54:47.025Z,99346.70
2023-03-08T20:57:27.635Z,99343.59
2023-03-08T21:00:19.956Z,99339.27
2023-03-08T21:02:52.091Z,99334.30
2023-03-08T21:05:30.926Z,99327.91
2023-03-08T21:08:07.473Z,99321.54
2023-03-08T21:11:00.878Z,99321.74
2023-03-08T21:13:51.371Z,99314.79
2023-03-08T21:16:23.523Z,99315.96
2023-03-08T21:18:58.773Z,99315.73
2023-03-08T21:21:40.865Z,99317.33
2023-03-08T21:24:18.600Z,99319.11
2023-03-08T21:26:53.912Z,99315.71
2023-03-08T21:29:36.940Z,99316.04
2023-03-08T21:32:16.396Z,99316.45
2023-03-08T21:35:07.101Z,99310.32
2023-03-08T21:37:51.649Z,99305.28
2023-03-08T21:40:52.900Z,99303.58
2023-03-08T21:43:46.695Z,99307.85
2023-03-08T21:46:31.631Z,99302.41
2023-03-08T21:49:33.917Z,99303.95
2023-03-08T21:52:37.433Z,99304.91
2023-03-08T21:55:22.401Z,99305.38
2023-03-08T21:57:54.751Z,99305.85
2023-03-08T22:00:54.805Z,99306.02
2023-03-08T22:03:39.701Z,99306.72
2023-03-08T22:06:27.087Z,99303.94
2023-03-08T22:09:30.080Z,99299.98
2023-03-08T22:12:27.850Z,99296.42
2023-03-08T22:15:17.441Z,99296.63
2023-03-08T22:18:05.480Z,99291.13
2023-03-08T22:20:38.272Z,99285.13
2023-03-08T22:23:10.899Z,99289.29
2023-03-08T22:25:55.246Z,99290.64
2023-03-08T22:28:32.891Z,99288.88
2023-03-08T22:31:36.845Z,99287.23
2023-03-08T22:34:18.089Z,99284.13
2023-03-08T22:36:57.802Z,99280.44
2023-03-08T22:39:31.632Z,99286.48
2023-03-08T22:42:18.768Z,99286.16
2023-03-08T22:44:52.647Z,99289.23
2023-03-08T22:47:27.252Z,99282.92
2023-03-08T22:50:09.443Z,99281.83
2023-03-08T22:52:40.150Z,99285.52
2023-03-08T22:55:17.241Z,99288.20
2023-03-08T22:58:05.987Z,99280.88
2023-03-08T23:00:54.225Z,99273.23
2023-03-08T23:03:42.288Z,99272.05
2023-03-08T23:06:14.970Z,99272.71
2023-03-08T23:08:55.470Z,99268.25
2023-03-08T23:11:34.001Z,99256.92
2023-03-08T23:14:18.084Z,99260.97
2023-03-08T23:16:49.219Z,99264.89
2023-03-08T23:19:25.195Z,99264.39
2023-03-08T23:22:22.361Z,99265.92
2023-03-08T23:25:05.391Z,99261.27
2023-03-08T23:27:46.376Z,99256.95
2023-03-08T23:30:28.148Z,99250.60
2023-03-08T23:33:07.350Z,99244.27
2023-03-08T23:35:51.169Z,99248.59
2023-03-08T23:38:36.129Z,99252.39
2023-03-08T23:41:30.192Z,99249.09
2023-03-08T23:44:22.466Z,99238.45
2023-03-08T23:47:16.305Z,99230.52
2023-03-08T23:50:13.143Z,99220.81
2023-03-08T23:52:56.210Z,99215.15
2023-03-08T23:55:32.553Z,99215.70
2023-03-08T23:58:05.412Z,99218.85
